Time;durP1;ratioP1;P1;durP2;ratioP2;P2;SDS_P1;SDS_P2;PMS_P1;PMS_P2;Temp;Humidity;BMP_temperature;BMP_pressure;BME280_temperature;BME280_humidity;BME280_pressure;Samples;Min_cycle;Max_cycle;Signal;HPM_P1;HPM_P2
2024/01/07 00:00:48;;;;;;;26.70;17.65;;;4.90;99.90;;;;;;7366194;19;20011;-71
2024/01/07 00:03:22;;;;;;;25.40;17.20;;;4.90;99.90;;;;;;7363258;19;20007;-70
2024/01/07 00:05:53;;;;;;;27.33;16.80;;;4.90;99.90;;;;;;7367118;19;20044;-71
2024/01/07 00:08:24;;;;;;;25.33;17.35;;;4.90;99.90;;;;;;7370869;19;20015;-70
2024/01/07 00:10:54;;;;;;;28.23;17.13;;;4.90;99.90;;;;;;7368408;19;20014;-71
2024/01/07 00:13:26;;;;;;;27.25;17.38;;;4.80;99.90;;;;;;7366618;19;20011;-71
2024/01/07 00:15:57;;;;;;;25.55;17.00;;;4.90;99.90;;;;;;7364444;19;20050;-71
2024/01/07 00:18:31;;;;;;;24.58;16.45;;;4.90;99.90;;;;;;7365635;19;20003;-71
2024/01/07 00:21:01;;;;;;;27.35;17.30;;;4.90;99.90;;;;;;7367863;19;20025;-70
2024/01/07 00:23:32;;;;;;;24.08;16.15;;;4.90;99.90;;;;;;7366406;19;20009;-71
2024/01/07 00:26:03;;;;;;;26.48;16.42;;;4.90;99.90;;;;;;7366841;19;20082;-71
2024/01/07 00:28:34;;;;;;;24.80;16.95;;;4.90;99.90;;;;;;7362444;19;20014;-72
2024/01/07 00:31:07;;;;;;;30.55;19.38;;;4.90;99.90;;;;;;7363380;19;20709;-71
2024/01/07 00:33:41;;;;;;;28.88;17.38;;;4.90;99.90;;;;;;7371486;19;20018;-69
2024/01/07 00:36:11;;;;;;;26.90;17.30;;;4.90;99.90;;;;;;7368528;19;20081;-69
2024/01/07 00:38:42;;;;;;;27.38;17.25;;;4.90;99.90;;;;;;7374328;19;20550;-70
2024/01/07 00:41:12;;;;;;;29.70;17.95;;;4.90;99.90;;;;;;7374847;19;20075;-69
2024/01/07 00:43:43;;;;;;;24.90;16.60;;;4.90;99.90;;;;;;7377015;19;20470;-70
2024/01/07 00:46:12;;;;;;;25.15;16.25;;;4.90;99.90;;;;;;7374470;19;20007;-70
2024/01/07 00:48:45;;;;;;;25.95;16.33;;;4.90;99.90;;;;;;7374219;19;20006;-70
2024/01/07 00:51:15;;;;;;;26.23;16.48;;;4.90;99.90;;;;;;7375004;19;22055;-69
2024/01/07 00:53:45;;;;;;;25.45;15.80;;;4.90;99.90;;;;;;7375167;19;20408;-70
2024/01/07 00:56:15;;;;;;;24.42;16.02;;;5.00;99.90;;;;;;7375509;19;20014;-70
2024/01/07 00:58:45;;;;;;;26.02;16.30;;;4.90;99.90;;;;;;7374899;19;20479;-71
2024/01/07 01:01:15;;;;;;;26.90;16.10;;;4.90;99.90;;;;;;7379472;19;20015;-69
2024/01/07 01:03:48;;;;;;;23.88;16.48;;;4.90;99.90;;;;;;7383588;19;20038;-69
2024/01/07 01:06:18;;;;;;;26.38;17.30;;;5.00;99.90;;;;;;7381449;19;20136;-69
2024/01/07 01:08:48;;;;;;;34.33;17.60;;;4.90;99.90;;;;;;7381836;19;20597;-71
2024/01/07 01:11:18;;;;;;;29.17;17.80;;;4.90;99.90;;;;;;7380486;19;20021;-70
2024/01/07 01:13:50;;;;;;;29.60;17.77;;;4.90;99.90;;;;;;7382639;19;20091;-70
2024/01/07 01:16:20;;;;;;;30.95;17.83;;;4.90;99.90;;;;;;7377725;19;20788;-69
2024/01/07 01:18:56;;;;;;;29.40;18.17;;;4.90;99.90;;;;;;7380850;19;20465;-69
2024/01/07 01:21:27;;;;;;;33.88;18.70;;;4.90;99.90;;;;;;7382060;19;20073;-69
2024/01/07 01:23:57;;;;;;;30.58;18.45;;;4.90;99.90;;;;;;7381441;19;20015;-69
2024/01/07 01:26:27;;;;;;;31.08;17.40;;;4.90;99.90;;;;;;7381548;19;20031;-70
2024/01/07 01:28:57;;;;;;;33.40;19.90;;;4.90;99.90;;;;;;7380298;19;20117;-70
2024/01/07 01:31:27;;;;;;;34.53;18.77;;;4.90;99.90;;;;;;7382552;19;20006;-70
2024/01/07 01:34:00;;;;;;;34.88;19.50;;;4.90;99.90;;;;;;7382176;19;20022;-70
2024/01/07 01:36:33;;;;;;;31.45;19.13;;;5.00;99.90;;;;;;7381825;19;20107;-70
2024/01/07 01:39:03;;;;;;;32.20;19.48;;;5.00;99.90;;;;;;7381532;19;20093;-70
2024/01/07 01:41:33;;;;;;;32.05;19.92;;;5.00;99.90;;;;;;7381556;19;20018;-70
2024/01/07 01:44:03;;;;;;;34.75;19.40;;;4.90;99.90;;;;;;7382782;19;20017;-69
2024/01/07 01:46:34;;;;;;;31.38;19.48;;;4.90;99.90;;;;;;7382591;19;20015;-69
2024/01/07 01:49:07;;;;;;;34.65;20.67;;;4.90;99.90;;;;;;7381408;19;20374;-70
2024/01/07 01:51:38;;;;;;;36.90;22.23;;;4.90;99.90;;;;;;7382573;19;20027;-70
2024/01/07 01:54:08;;;;;;;35.90;20.77;;;4.90;99.90;;;;;;7382855;19;20396;-70
2024/01/07 01:56:39;;;;;;;38.13;21.23;;;4.90;99.90;;;;;;7379263;19;20015;-70
2024/01/07 01:59:10;;;;;;;34.40;21.52;;;4.90;99.90;;;;;;7381551;19;20015;-70
2024/01/07 02:01:41;;;;;;;33.10;22.10;;;4.90;99.90;;;;;;7390210;19;20017;-70
2024/01/07 02:04:14;;;;;;;41.50;22.52;;;4.90;99.90;;;;;;7383533;19;20027;-70
2024/01/07 02:06:44;;;;;;;34.25;21.02;;;4.90;99.90;;;;;;7379460;19;20466;-69
2024/01/07 02:09:14;;;;;;;37.05;21.92;;;4.90;99.90;;;;;;7379543;19;20007;-70
2024/01/07 02:11:44;;;;;;;39.33;21.17;;;4.90;99.90;;;;;;7377598;19;20039;-69
2024/01/07 02:14:14;;;;;;;35.85;21.75;;;4.90;99.90;;;;;;7378340;19;20024;-71
2024/01/07 02:16:44;;;;;;;34.45;20.63;;;4.90;99.90;;;;;;7378680;19;20018;-69
2024/01/07 02:19:17;;;;;;;34.10;21.17;;;4.90;99.90;;;;;;7378810;19;20717;-70
2024/01/07 02:21:47;;;;;;;36.80;21.15;;;4.90;99.90;;;;;;7379560;19;20010;-70
2024/01/07 02:24:21;;;;;;;32.42;20.63;;;4.90;99.90;;;;;;7379012;19;20014;-70
2024/01/07 02:26:51;;;;;;;34.78;19.77;;;4.90;99.90;;;;;;7379241;19;20010;-69
2024/01/07 02:29:21;;;;;;;34.58;20.60;;;4.90;99.90;;;;;;7379108;19;20027;-70
2024/01/07 02:31:51;;;;;;;33.53;19.60;;;4.90;99.90;;;;;;7378763;19;20006;-70
2024/01/07 02:34:21;;;;;;;33.97;20.17;;;4.90;99.90;;;;;;7378761;19;20319;-70
2024/01/07 02:36:51;;;;;;;29.75;19.45;;;4.90;99.90;;;;;;7379331;19;20089;-69
2024/01/07 02:39:24;;;;;;;32.10;19.38;;;4.90;99.90;;;;;;7379251;19;20006;-69
2024/01/07 02:41:54;;;;;;;30.60;18.33;;;4.80;99.90;;;;;;7379017;19;20011;-70
2024/01/07 02:44:24;;;;;;;26.13;16.73;;;4.80;99.90;;;;;;7378731;19;20074;-70
2024/01/07 02:46:54;;;;;;;28.75;18.05;;;4.80;99.90;;;;;;7380115;19;20490;-69
2024/01/07 02:49:24;;;;;;;30.58;17.35;;;4.80;99.90;;;;;;7378815;19;20018;-69
2024/01/07 02:51:54;;;;;;;27.52;17.25;;;4.80;99.90;;;;;;7379377;19;20105;-69
2024/01/07 02:54:27;;;;;;;33.95;18.15;;;4.80;99.90;;;;;;7379644;19;20812;-69
2024/01/07 02:56:57;;;;;;;26.52;16.02;;;4.70;99.90;;;;;;7378999;19;20356;-69
2024/01/07 02:59:27;;;;;;;28.17;17.80;;;4.80;99.90;;;;;;7378135;19;20463;-70
2024/01/07 03:01:57;;;;;;;31.08;18.77;;;4.80;99.90;;;;;;7379913;19;20013;-69
2024/01/07 03:04:27;;;;;;;30.83;18.75;;;4.80;99.90;;;;;;7378377;19;20015;-70
2024/01/07 03:06:57;;;;;;;31.48;18.60;;;4.80;99.90;;;;;;7379975;19;20010;-69
2024/01/07 03:09:30;;;;;;;27.17;17.65;;;4.70;99.90;;;;;;7378725;19;20021;-70
2024/01/07 03:12:00;;;;;;;29.90;17.98;;;4.80;99.90;;;;;;7378227;19;20039;-70
2024/01/07 03:14:30;;;;;;;30.10;18.13;;;4.80;99.90;;;;;;7379827;19;20025;-70
2024/01/07 03:17:00;;;;;;;32.97;20.40;;;4.70;99.90;;;;;;7378252;19;20031;-69
2024/01/07 03:19:30;;;;;;;32.83;19.15;;;4.70;99.90;;;;;;7377393;19;20052;-70
2024/01/07 03:22:00;;;;;;;35.88;20.05;;;4.70;99.90;;;;;;7378089;19;20014;-70
2024/01/07 03:24:33;;;;;;;32.38;18.75;;;4.80;99.90;;;;;;7374718;19;20039;-70
2024/01/07 03:27:03;;;;;;;35.80;19.45;;;4.80;99.90;;;;;;7377215;19;20010;-70
2024/01/07 03:29:33;;;;;;;31.63;19.27;;;4.70;99.90;;;;;;7377698;19;20029;-70
2024/01/07 03:32:03;;;;;;;33.97;20.27;;;4.70;99.90;;;;;;7377966;19;20426;-71
2024/01/07 03:34:33;;;;;;;33.17;20.17;;;4.70;99.90;;;;;;7378278;19;20082;-71
2024/01/07 03:37:03;;;;;;;31.50;18.98;;;4.70;99.90;;;;;;7377977;19;20025;-68
2024/01/07 03:39:37;;;;;;;34.10;19.40;;;4.70;99.90;;;;;;7377311;19;20104;-68
2024/01/07 03:42:11;;;;;;;;;;;4.70;99.90;;;;;;7380359;19;20557;-69
2024/01/07 03:44:41;;;;;;;31.40;18.90;;;4.70;99.90;;;;;;7378987;19;19923;-68
2024/01/07 03:47:11;;;;;;;31.80;18.63;;;4.60;99.90;;;;;;7375595;19;20495;-71
2024/01/07 03:49:41;;;;;;;35.95;18.75;;;4.60;99.90;;;;;;7377670;19;20092;-68
2024/01/07 03:52:12;;;;;;;34.08;19.25;;;4.60;99.90;;;;;;7376952;19;20025;-71
2024/01/07 03:54:44;;;;;;;35.65;19.00;;;4.60;99.90;;;;;;7378445;19;20018;-68
2024/01/07 03:57:15;;;;;;;34.22;19.30;;;4.60;99.90;;;;;;7375256;19;20066;-69
2024/01/07 03:59:45;;;;;;;32.22;18.38;;;4.60;99.90;;;;;;7376870;19;20010;-68
2024/01/07 04:02:16;;;;;;;31.23;19.33;;;4.50;99.90;;;;;;7375458;19;20010;-67
2024/01/07 04:04:46;;;;;;;31.45;18.33;;;4.50;99.90;;;;;;7376991;19;20015;-69
2024/01/07 04:07:16;;;;;;;32.10;19.05;;;4.50;99.90;;;;;;7377843;19;20018;-69
2024/01/07 04:09:49;;;;;;;32.97;18.30;;;4.50;99.90;;;;;;7375898;19;20486;-68
2024/01/07 04:12:19;;;;;;;33.55;17.98;;;4.50;99.90;;;;;;7376052;19;20130;-68
2024/01/07 04:14:49;;;;;;;30.45;17.40;;;4.40;99.90;;;;;;7377630;19;20010;-69
2024/01/07 04:17:19;;;;;;;32.53;18.25;;;4.40;99.90;;;;;;7377091;19;20023;-68
2024/01/07 04:19:49;;;;;;;28.73;17.17;;;4.40;99.90;;;;;;7375040;19;20014;-68
2024/01/07 04:22:19;;;;;;;33.60;17.80;;;4.40;99.90;;;;;;7375165;19;20007;-68
2024/01/07 04:24:51;;;;;;;31.35;17.95;;;4.40;99.90;;;;;;7376933;19;20014;-69
2024/01/07 04:27:21;;;;;;;27.42;16.23;;;4.40;99.90;;;;;;7375687;19;20451;-68
2024/01/07 04:29:51;;;;;;;26.23;15.88;;;4.40;99.90;;;;;;7375526;19;20010;-68
2024/01/07 04:32:22;;;;;;;27.33;15.88;;;4.30;99.90;;;;;;7369972;19;20598;-69
2024/01/07 04:34:52;;;;;;;29.70;15.93;;;4.40;99.90;;;;;;7370662;19;20011;-70
2024/01/07 04:37:23;;;;;;;25.08;15.48;;;4.40;99.90;;;;;;7371673;19;20062;-70
2024/01/07 04:39:56;;;;;;;23.77;14.68;;;4.40;99.90;;;;;;7368979;19;20011;-70
2024/01/07 04:42:27;;;;;;;24.80;14.93;;;4.40;99.90;;;;;;7369562;19;20797;-71
2024/01/07 04:44:57;;;;;;;24.52;14.57;;;4.40;99.90;;;;;;7369067;19;20011;-73
2024/01/07 04:47:29;;;;;;;25.35;15.63;;;4.40;99.90;;;;;;7369100;19;20082;-70
2024/01/07 04:50:00;;;;;;;26.42;14.77;;;4.40;99.90;;;;;;7368187;19;20007;-70
2024/01/07 04:52:31;;;;;;;25.67;14.73;;;4.40;99.90;;;;;;7372827;19;20021;-71
2024/01/07 04:55:04;;;;;;;24.60;13.38;;;4.40;99.90;;;;;;7365964;19;20010;-71
2024/01/07 04:57:35;;;;;;;25.45;14.50;;;4.40;99.90;;;;;;7368926;19;20018;-73
2024/01/07 05:00:07;;;;;;;23.75;14.00;;;4.40;99.90;;;;;;7377104;19;20046;-70
2024/01/07 05:02:38;;;;;;;22.50;13.57;;;4.40;99.90;;;;;;7384019;19;20011;-69
2024/01/07 05:05:10;;;;;;;24.10;14.65;;;4.40;99.90;;;;;;7383954;19;20382;-69
2024/01/07 05:07:40;;;;;;;25.35;13.73;;;4.40;99.90;;;;;;7383529;19;20040;-69
2024/01/07 05:10:13;;;;;;;26.90;15.05;;;4.40;99.90;;;;;;7383264;19;20373;-69
2024/01/07 05:12:44;;;;;;;25.52;14.73;;;4.30;99.90;;;;;;7379457;19;20082;-70
2024/01/07 05:15:14;;;;;;;25.60;14.30;;;4.40;99.90;;;;;;7381631;19;20455;-70
2024/01/07 05:17:44;;;;;;;24.30;14.40;;;4.40;99.90;;;;;;7381055;19;20074;-70
2024/01/07 05:20:17;;;;;;;26.98;14.85;;;4.40;99.90;;;;;;7380159;19;20003;-69
2024/01/07 05:22:47;;;;;;;26.00;13.82;;;4.40;99.90;;;;;;7381922;19;20490;-69
2024/01/07 05:25:20;;;;;;;24.45;14.00;;;4.30;99.90;;;;;;7381601;19;20017;-69
2024/01/07 05:27:50;;;;;;;25.48;14.48;;;4.40;99.90;;;;;;7382251;19;20072;-70
2024/01/07 05:30:20;;;;;;;23.02;14.15;;;4.30;99.90;;;;;;7380683;19;20010;-70
2024/01/07 05:32:50;;;;;;;26.70;13.73;;;4.30;99.90;;;;;;7381662;19;20041;-69
2024/01/07 05:35:20;;;;;;;25.75;13.95;;;4.30;99.90;;;;;;7382229;19;20387;-69
2024/01/07 05:37:50;;;;;;;23.08;13.88;;;4.30;99.90;;;;;;7379884;19;20014;-68
2024/01/07 05:40:23;;;;;;;23.25;13.77;;;4.30;99.90;;;;;;7380168;19;20501;-69
2024/01/07 05:42:53;;;;;;;23.38;14.27;;;4.30;99.90;;;;;;7380624;19;20083;-69
2024/01/07 05:45:23;;;;;;;23.00;13.88;;;4.30;99.90;;;;;;7381013;19;20010;-68
2024/01/07 05:47:53;;;;;;;27.55;14.68;;;4.30;99.90;;;;;;7378851;19;20010;-69
2024/01/07 05:50:23;;;;;;;25.65;13.95;;;4.30;99.90;;;;;;7380878;19;20047;-69
2024/01/07 05:52:53;;;;;;;24.67;14.20;;;4.40;99.90;;;;;;7380684;19;20010;-69
2024/01/07 05:55:25;;;;;;;23.58;13.98;;;4.30;99.90;;;;;;7381167;19;20007;-69
2024/01/07 05:57:55;;;;;;;24.67;14.45;;;4.30;99.90;;;;;;7381270;19;20471;-69
2024/01/07 06:00:25;;;;;;;24.13;14.70;;;4.30;99.90;;;;;;7380046;19;20397;-69
2024/01/07 06:02:55;;;;;;;23.83;14.27;;;4.30;99.90;;;;;;7380521;19;20007;-69
2024/01/07 06:05:25;;;;;;;21.65;13.20;;;4.30;99.90;;;;;;7380932;19;20007;-69
2024/01/07 06:07:55;;;;;;;24.17;14.23;;;4.30;99.90;;;;;;7380166;19;20007;-68
2024/01/07 06:10:28;;;;;;;24.00;14.65;;;4.30;99.90;;;;;;7382162;19;20328;-69
2024/01/07 06:12:58;;;;;;;21.38;13.30;;;4.30;99.90;;;;;;7381175;19;20014;-69
2024/01/07 06:15:28;;;;;;;23.10;13.75;;;4.30;99.90;;;;;;7380905;19;20007;-69
2024/01/07 06:17:58;;;;;;;24.00;13.82;;;4.30;99.90;;;;;;7380839;19;20013;-69
2024/01/07 06:20:28;;;;;;;19.92;12.95;;;4.30;99.90;;;;;;7380444;19;20441;-68
2024/01/07 06:22:58;;;;;;;22.20;13.13;;;4.30;98.10;;;;;;7380105;19;20013;-69
2024/01/07 06:25:31;;;;;;;20.20;13.35;;;4.30;92.30;;;;;;7380161;19;20348;-69
2024/01/07 06:28:01;;;;;;;20.95;13.20;;;4.30;90.20;;;;;;7381093;19;20495;-68
2024/01/07 06:30:31;;;;;;;17.40;12.15;;;4.30;85.50;;;;;;7380206;19;20036;-69
2024/01/07 06:33:01;;;;;;;19.65;13.23;;;4.30;56.80;;;;;;7381248;19;20075;-69
2024/01/07 06:35:31;;;;;;;19.30;12.75;;;4.30;28.90;;;;;;7381081;19;20011;-70
2024/01/07 06:38:01;;;;;;;17.00;11.25;;;4.30;18.20;;;;;;7379933;19;20035;-69
2024/01/07 06:40:34;;;;;;;17.13;11.95;;;4.30;1.90;;;;;;7378539;19;20040;-69
2024/01/07 06:43:04;;;;;;;17.92;11.65;;;4.30;1.00;;;;;;7378517;19;20399;-69
2024/01/07 06:45:34;;;;;;;15.48;11.05;;;4.30;1.00;;;;;;7378921;19;20034;-68
2024/01/07 06:48:04;;;;;;;18.90;12.40;;;4.30;1.00;;;;;;7377559;19;20404;-70
2024/01/07 06:50:34;;;;;;;18.00;12.05;;;4.30;1.00;;;;;;7376874;19;20947;-69
2024/01/07 06:53:05;;;;;;;16.02;11.95;;;4.30;1.00;;;;;;7377763;19;20378;-69
2024/01/07 06:55:37;;;;;;;15.60;11.48;;;4.30;1.00;;;;;;7378451;19;20452;-69
2024/01/07 06:58:08;;;;;;;16.25;11.90;;;4.30;1.00;;;;;;7379184;19;20082;-68
2024/01/07 07:00:38;;;;;;;15.95;11.55;;;4.30;1.00;;;;;;7380119;19;20024;-71
2024/01/07 07:03:08;;;;;;;13.50;10.07;;;4.20;1.00;;;;;;7379820;19;20023;-70
2024/01/07 07:05:39;;;;;;;12.02;8.23;;;4.20;1.00;;;;;;7380238;19;20372;-68
2024/01/07 07:08:09;;;;;;;10.40;7.63;;;4.10;1.00;;;;;;7388410;19;20011;-69
2024/01/07 07:10:42;;;;;;;10.15;7.20;;;4.10;1.00;;;;;;7385051;19;20014;-68
2024/01/07 07:13:12;;;;;;;11.23;8.35;;;4.10;1.00;;;;;;7375986;19;20011;-68
2024/01/07 07:15:42;;;;;;;13.30;8.50;;;4.10;1.00;;;;;;7380660;19;20035;-68
2024/01/07 07:18:12;;;;;;;13.30;9.02;;;4.10;1.00;;;;;;7377778;19;20015;-68
2024/01/07 07:20:43;;;;;;;9.85;7.57;;;4.10;1.00;;;;;;7373980;19;20038;-68
2024/01/07 07:23:13;;;;;;;10.40;8.20;;;4.00;1.00;;;;;;7375630;19;20011;-68
2024/01/07 07:25:46;;;;;;;10.00;7.18;;;4.00;1.00;;;;;;7373888;19;20021;-68
2024/01/07 07:28:17;;;;;;;9.63;7.63;;;4.00;1.00;;;;;;7377368;19;20483;-69
2024/01/07 07:30:47;;;;;;;12.43;8.13;;;4.00;1.00;;;;;;7377134;19;20356;-68
2024/01/07 07:33:21;;;;;;;11.35;8.32;;;4.00;1.00;;;;;;7378552;19;20014;-68
2024/01/07 07:35:51;;;;;;;11.80;7.93;;;4.00;1.00;;;;;;7378786;19;20352;-69
2024/01/07 07:38:21;;;;;;;10.40;7.85;;;4.00;1.00;;;;;;7378232;19;20116;-68
2024/01/07 07:40:55;;;;;;;11.18;7.65;;;4.00;1.00;;;;;;7377890;19;20019;-69
2024/01/07 07:43:25;;;;;;;10.57;7.27;;;4.00;1.00;;;;;;7377403;19;20464;-69
2024/01/07 07:45:55;;;;;;;10.27;6.95;;;4.00;1.00;;;;;;7378162;19;20044;-69
2024/01/07 07:48:26;;;;;;;10.15;6.97;;;4.00;1.00;;;;;;7377720;19;20507;-69
2024/01/07 07:50:56;;;;;;;10.68;6.82;;;4.00;1.00;;;;;;7378264;19;20023;-69
2024/01/07 07:53:26;;;;;;;9.00;6.47;;;4.00;1.00;;;;;;7375670;19;20030;-69
2024/01/07 07:55:59;;;;;;;10.90;6.72;;;4.00;1.00;;;;;;7378007;19;20022;-69
2024/01/07 07:58:30;;;;;;;9.30;6.32;;;3.90;1.00;;;;;;7374206;19;20082;-70
2024/01/07 08:01:00;;;;;;;9.68;6.47;;;4.00;1.00;;;;;;7379397;19;20021;-68
2024/01/07 08:03:30;;;;;;;8.57;6.25;;;3.90;1.00;;;;;;7379022;19;20363;-69
2024/01/07 08:06:01;;;;;;;10.82;7.35;;;3.90;1.00;;;;;;7376518;19;20007;-68
2024/01/07 08:08:31;;;;;;;10.60;7.03;;;3.90;1.00;;;;;;7378439;19;20011;-69
2024/01/07 08:11:06;;;;;;;10.27;7.43;;;3.90;1.00;;;;;;7388415;19;20035;-68
2024/01/07 08:13:37;;;;;;;10.75;6.85;;;3.90;1.00;;;;;;7391245;19;20039;-68
2024/01/07 08:16:10;;;;;;;11.65;7.38;;;3.90;1.00;;;;;;7388558;19;20011;-70
2024/01/07 08:18:40;;;;;;;11.63;7.55;;;3.90;1.00;;;;;;7391295;19;20010;-69
2024/01/07 08:21:11;;;;;;;11.90;7.43;;;3.90;1.00;;;;;;7391639;19;20007;-67
2024/01/07 08:23:42;;;;;;;10.65;7.20;;;3.90;1.00;;;;;;7391850;19;20074;-67
2024/01/07 08:26:15;;;;;;;8.15;6.35;;;3.90;1.00;;;;;;7392189;19;20022;-69
2024/01/07 08:28:46;;;;;;;8.35;6.00;;;3.90;1.00;;;;;;7391296;19;20077;-68
2024/01/07 08:31:16;;;;;;;9.23;5.80;;;3.80;1.00;;;;;;7388959;19;20017;-68
2024/01/07 08:33:46;;;;;;;6.90;4.78;;;3.80;1.00;;;;;;7386709;19;20010;-69
2024/01/07 08:36:16;;;;;;;5.80;4.28;;;3.80;1.00;;;;;;7389547;19;19998;-67
2024/01/07 08:38:46;;;;;;;7.05;4.63;;;3.80;1.00;;;;;;7389504;19;20090;-68
2024/01/07 08:41:20;;;;;;;6.72;4.45;;;3.80;1.00;;;;;;7392574;19;20010;-67
2024/01/07 08:43:50;;;;;;;6.72;4.50;;;3.90;1.00;;;;;;7386337;19;20034;-68
2024/01/07 08:46:23;;;;;;;5.35;3.95;;;3.80;1.00;;;;;;7390515;19;20014;-68
2024/01/07 08:48:53;;;;;;;7.40;5.07;;;3.90;1.00;;;;;;7390167;19;20062;-69
2024/01/07 08:51:23;;;;;;;6.68;4.70;;;3.90;1.00;;;;;;7391266;19;20010;-69
2024/01/07 08:53:53;;;;;;;7.57;4.80;;;3.80;1.00;;;;;;7389988;19;20526;-69
2024/01/07 08:56:26;;;;;;;7.70;5.32;;;3.80;1.00;;;;;;7390251;19;20407;-68
2024/01/07 08:58:56;;;;;;;11.40;6.78;;;3.80;1.00;;;;;;7388536;19;20010;-68
2024/01/07 09:01:26;;;;;;;8.77;6.43;;;3.90;1.00;;;;;;7390490;19;20010;-69
2024/01/07 09:03:56;;;;;;;10.27;6.68;;;3.80;1.00;;;;;;7387599;19;20071;-69
2024/01/07 09:06:26;;;;;;;10.93;6.82;;;3.80;1.00;;;;;;7389538;19;20014;-69
2024/01/07 09:08:57;;;;;;;9.95;7.15;;;3.80;1.00;;;;;;7389990;19;20006;-69
2024/01/07 09:11:29;;;;;;;9.82;6.75;;;3.70;1.00;;;;;;7390375;19;20496;-69
2024/01/07 09:13:59;;;;;;;10.93;7.20;;;3.70;1.00;;;;;;7389607;19;20029;-69
2024/01/07 09:16:29;;;;;;;10.07;6.80;;;3.70;1.00;;;;;;7388457;19;20007;-69
2024/01/07 09:18:59;;;;;;;10.00;6.78;;;3.70;1.00;;;;;;7388398;19;20465;-69
2024/01/07 09:21:30;;;;;;;9.68;6.88;;;3.70;1.00;;;;;;7386787;19;20521;-68
2024/01/07 09:24:00;;;;;;;10.52;6.57;;;3.70;1.00;;;;;;7380870;19;20010;-69
2024/01/07 09:26:32;;;;;;;11.02;6.88;;;3.70;1.00;;;;;;7382122;19;20018;-68
2024/01/07 09:29:03;;;;;;;10.85;7.28;;;3.70;1.00;;;;;;7381065;19;20018;-69
2024/01/07 09:31:33;;;;;;;8.55;6.47;;;3.70;1.00;;;;;;7381740;19;20020;-69
2024/01/07 09:34:06;;;;;;;8.70;5.95;;;3.60;1.00;;;;;;7372141;19;20574;-70
2024/01/07 09:36:38;;;;;;;10.40;6.53;;;3.70;1.00;;;;;;7372470;19;21350;-71
2024/01/07 09:39:09;;;;;;;9.80;6.78;;;3.60;1.00;;;;;;7373984;19;20014;-69
2024/01/07 09:41:43;;;;;;;11.30;7.10;;;3.50;1.00;;;;;;7370919;19;20078;-71
2024/01/07 09:44:16;;;;;;;9.95;6.43;;;3.50;1.00;;;;;;7368740;19;20083;-69
2024/01/07 09:46:51;;;;;;;9.57;6.63;;;3.60;1.00;;;;;;7371850;19;20014;-70
2024/01/07 09:49:22;;;;;;;10.43;6.55;;;3.50;1.00;;;;;;7366241;19;20002;-71
2024/01/07 09:52:00;;;;;;;10.77;6.80;;;3.50;1.00;;;;;;7371566;19;20022;-70
2024/01/07 09:54:32;;;;;;;9.95;6.43;;;3.50;1.00;;;;;;7370804;19;20471;-70
2024/01/07 09:57:08;;;;;;;7.88;6.18;;;3.60;1.00;;;;;;7372034;19;20014;-71
2024/01/07 09:59:40;;;;;;;10.38;6.50;;;3.50;1.00;;;;;;7368149;19;20384;-71
2024/01/07 10:02:12;;;;;;;9.15;7.03;;;3.40;1.00;;;;;;7366627;19;20011;-70
2024/01/07 10:04:45;;;;;;;9.57;6.68;;;3.40;1.00;;;;;;7368078;19;20026;-70
2024/01/07 10:07:16;;;;;;;9.02;6.07;;;3.50;1.00;;;;;;7353111;19;20081;-70
2024/01/07 10:09:47;;;;;;;7.78;5.97;;;3.60;1.00;;;;;;7370862;19;20015;-71
2024/01/07 10:12:26;;;;;;;7.35;5.32;;;3.50;1.00;;;;;;7359730;19;20201;-69
2024/01/07 10:14:57;;;;;;;8.20;5.68;;;3.40;1.00;;;;;;7366354;19;20014;-70
2024/01/07 10:17:30;;;;;;;7.40;4.93;;;3.50;1.00;;;;;;7378300;19;20007;-71
2024/01/07 10:20:01;;;;;;;7.53;5.15;;;3.40;1.00;;;;;;7367755;19;20566;-69
2024/01/07 10:22:32;;;;;;;8.07;5.57;;;3.50;1.00;;;;;;7366731;19;20031;-70
2024/01/07 10:25:03;;;;;;;7.15;5.15;;;3.50;1.00;;;;;;7369267;19;20028;-71
2024/01/07 10:27:38;;;;;;;8.13;5.10;;;3.50;1.00;;;;;;7372109;19;20018;-70
2024/01/07 10:30:09;;;;;;;8.45;5.15;;;3.50;1.00;;;;;;7366052;19;20140;-71
2024/01/07 10:32:40;;;;;;;8.00;5.47;;;3.60;1.00;;;;;;7367490;19;20011;-70
2024/01/07 10:35:16;;;;;;;8.65;5.43;;;3.50;1.00;;;;;;7367628;19;20579;-72
2024/01/07 10:37:47;;;;;;;6.40;5.03;;;3.60;1.00;;;;;;7374934;19;20081;-70
2024/01/07 10:40:18;;;;;;;7.78;5.18;;;3.50;1.00;;;;;;7370168;19;20015;-69
2024/01/07 10:42:53;;;;;;;7.50;5.68;;;3.60;1.00;;;;;;7351557;19;20478;-71
2024/01/07 10:45:24;;;;;;;7.70;5.75;;;3.60;1.00;;;;;;7366462;19;20039;-71
2024/01/07 10:48:02;;;;;;;8.27;5.88;;;3.80;1.00;;;;;;7371297;19;20098;-70
2024/01/07 10:50:33;;;;;;;7.38;5.43;;;3.60;1.00;;;;;;7366508;19;20039;-70
2024/01/07 10:53:07;;;;;;;6.80;4.95;;;3.50;1.00;;;;;;7367804;19;20018;-70
2024/01/07 10:55:45;;;;;;;7.40;5.13;;;3.50;1.00;;;;;;7363721;19;20026;-71
2024/01/07 10:58:18;;;;;;;;;;;3.50;1.00;;;;;;7371088;19;20018;-70
2024/01/07 11:00:50;;;;;;;6.70;5.00;;;3.50;1.00;;;;;;7347095;19;19918;-70
2024/01/07 11:03:27;;;;;;;10.13;5.55;;;3.50;1.00;;;;;;7364867;19;20022;-72
2024/01/07 11:06:04;;;;;;;7.28;5.40;;;3.30;1.00;;;;;;7368571;19;20013;-70
2024/01/07 11:08:42;;;;;;;9.18;6.47;;;3.30;1.00;;;;;;7369041;19;20011;-69
2024/01/07 11:11:17;;;;;;;8.18;5.80;;;3.30;1.00;;;;;;7367288;19;20011;-70
2024/01/07 11:13:50;;;;;;;8.20;5.63;;;3.20;1.00;;;;;;7366107;19;20018;-70
2024/01/07 11:16:44;;;;;;;7.80;5.50;;;3.20;1.00;;;;;;7365683;19;20018;-70
2024/01/07 11:19:17;;;;;;;7.70;5.70;;;3.20;1.00;;;;;;7368717;19;20010;-70
2024/01/07 11:21:48;;;;;;;7.70;5.68;;;3.20;1.00;;;;;;7369784;19;20021;-68
2024/01/07 11:24:43;;;;;;;7.55;5.50;;;3.30;1.00;;;;;;7369665;19;20014;-69
2024/01/07 11:27:13;;;;;;;8.07;5.68;;;3.20;1.00;;;;;;7372149;19;20653;-70
2024/01/07 11:29:47;;;;;;;7.15;5.35;;;3.20;1.00;;;;;;7369306;19;20047;-70
2024/01/07 11:32:21;;;;;;;7.85;5.45;;;3.30;1.00;;;;;;7347588;19;20040;-71
2024/01/07 11:34:53;;;;;;;6.93;4.97;;;3.20;1.00;;;;;;7363289;19;20027;-69
2024/01/07 11:37:24;;;;;;;8.75;5.78;;;3.10;1.00;;;;;;7367687;19;20389;-70
2024/01/07 11:39:59;;;;;;;7.47;5.75;;;3.10;1.00;;;;;;7365756;19;20013;-70
2024/01/07 11:42:30;;;;;;;;;;;3.10;1.00;;;;;;7369393;19;20007;-71
2024/01/07 11:45:03;;;;;;;8.88;5.80;;;3.10;1.00;;;;;;7368004;19;20043;-71
2024/01/07 11:47:33;;;;;;;8.40;6.00;;;3.20;1.00;;;;;;7368630;19;20003;-71
2024/01/07 11:50:04;;;;;;;10.52;6.63;;;3.00;1.00;;;;;;7368444;19;20078;-70
2024/01/07 11:52:38;;;;;;;9.02;6.43;;;2.90;1.00;;;;;;7363727;19;20483;-70
2024/01/07 11:55:10;;;;;;;;;;;2.80;1.00;;;;;;7370605;19;20601;-70
2024/01/07 11:57:41;;;;;;;8.88;6.00;;;2.80;1.00;;;;;;7368594;19;19918;-70
2024/01/07 12:00:16;;;;;;;10.52;7.03;;;2.70;1.00;;;;;;7365176;19;20019;-72
2024/01/07 12:02:51;;;;;;;8.98;6.55;;;2.70;1.00;;;;;;7362239;19;20007;-71
2024/01/07 12:05:24;;;;;;;9.77;7.07;;;2.80;1.00;;;;;;7365013;19;20027;-70
2024/01/07 12:07:56;;;;;;;8.97;6.83;;;2.70;1.00;;;;;;7367752;19;20068;-70
2024/01/07 12:10:27;;;;;;;11.18;7.85;;;2.70;1.00;;;;;;7365484;19;20039;-69
2024/01/07 12:12:58;;;;;;;10.32;7.35;;;2.60;1.00;;;;;;7366556;19;20014;-71
2024/01/07 12:15:32;;;;;;;11.60;9.07;;;2.60;1.00;;;;;;7367195;19;20039;-70
2024/01/07 12:18:03;;;;;;;;;;;2.70;1.00;;;;;;7367119;19;20022;-69
2024/01/07 12:20:35;;;;;;;11.15;7.32;;;2.60;1.00;;;;;;7372257;19;19974;-70
2024/01/07 12:23:10;;;;;;;9.73;6.95;;;2.60;1.00;;;;;;7366491;19;20483;-70
2024/01/07 12:25:41;;;;;;;11.75;8.02;;;2.60;1.00;;;;;;7363699;19;20010;-70
2024/01/07 12:28:12;;;;;;;13.15;8.55;;;2.50;1.00;;;;;;7366217;19;20007;-70
2024/01/07 12:30:46;;;;;;;11.02;8.13;;;2.50;1.00;;;;;;7363810;19;20072;-70
2024/01/07 12:33:20;;;;;;;12.88;7.65;;;2.40;1.00;;;;;;7362559;19;20372;-70
2024/01/07 12:35:51;;;;;;;;;;;2.50;1.00;;;;;;7359753;19;20014;-70
2024/01/07 12:38:29;;;;;;;12.93;7.47;;;2.50;1.00;;;;;;7370147;19;19927;-71
2024/01/07 12:41:00;;;;;;;11.77;7.28;;;2.40;1.00;;;;;;7360562;19;20022;-71
2024/01/07 12:43:31;;;;;;;12.15;8.35;;;2.40;1.00;;;;;;7367719;19;20011;-70
2024/01/07 12:46:05;;;;;;;12.23;9.02;;;2.50;1.00;;;;;;7362891;19;20401;-70
2024/01/07 12:48:36;;;;;;;;;;;2.50;1.00;;;;;;7364024;19;20025;-69
2024/01/07 12:51:08;;;;;;;13.45;8.98;;;2.40;1.00;;;;;;7365589;19;19942;-70
2024/01/07 12:53:39;;;;;;;12.00;7.47;;;2.30;1.00;;;;;;7367255;19;20078;-70
2024/01/07 12:56:10;;;;;;;15.00;9.15;;;2.30;1.00;;;;;;7369585;19;20014;-70
2024/01/07 12:58:41;;;;;;;10.80;7.75;;;2.30;1.00;;;;;;7370558;19;20015;-70
2024/01/07 13:01:14;;;;;;;12.95;8.90;;;2.10;1.00;;;;;;7367288;19;20015;-70
2024/01/07 13:03:46;;;;;;;13.55;8.13;;;2.20;1.00;;;;;;7375562;19;20499;-71
2024/01/07 13:06:18;;;;;;;13.02;8.40;;;2.10;1.00;;;;;;7374029;19;20018;-72
2024/01/07 13:08:51;;;;;;;13.77;9.10;;;2.10;1.00;;;;;;7365571;19;20018;-70
2024/01/07 13:11:23;;;;;;;13.60;9.25;;;2.00;1.00;;;;;;7372586;19;20019;-69